Time;durP1;ratioP1;P1;durP2;ratioP2;P2;SDS_P1;SDS_P2;PMS_P1;PMS_P2;Temp;Humidity;BMP_temperature;BMP_pressure;BME280_temperature;BME280_humidity;BME280_pressure;Samples;Min_cycle;Max_cycle;Signal;HPM_P1;HPM_P2
2023/11/15 00:00:42;;;;;;;2.53;1.10;;;;;;;9.52;100.00;153805.06;4946951;29;20546;-87
2023/11/15 00:03:09;;;;;;;2.47;0.80;;;;;;;9.53;100.00;153806.38;4946092;28;20522;-87
2023/11/15 00:05:35;;;;;;;1.60;1.10;;;;;;;9.52;100.00;153805.06;4945219;28;20465;-87
2023/11/15 00:08:02;;;;;;;3.47;1.10;;;;;;;9.53;100.00;153806.38;4948349;28;20451;-87
2023/11/15 00:10:28;;;;;;;2.03;0.73;;;;;;;9.54;100.00;153810.25;4948828;28;20459;-87
2023/11/15 00:12:55;;;;;;;1.30;0.90;;;;;;;9.57;100.00;153816.69;4951065;28;20455;-87
2023/11/15 00:15:23;;;;;;;2.17;0.60;;;;;;;9.58;100.00;153820.56;4948485;28;20455;-87
2023/11/15 00:17:49;;;;;;;1.40;0.70;;;;;;;9.57;100.00;153818.00;4943901;28;20462;-87
2023/11/15 00:20:16;;;;;;;1.23;0.73;;;;;;;9.56;100.00;153815.41;4936458;28;20475;-87
2023/11/15 00:22:42;;;;;;;2.80;1.00;;;;;;;9.53;100.00;153806.38;4948635;28;20454;-87
2023/11/15 00:25:09;;;;;;;1.13;0.70;;;;;;;9.52;100.00;153805.06;4949268;29;20468;-87
2023/11/15 00:27:36;;;;;;;1.00;0.70;;;;;;;9.51;100.00;153802.47;4945979;29;20873;-87
2023/11/15 00:30:05;;;;;;;1.60;0.83;;;;;;;9.50;100.00;153798.59;4951668;28;21005;-86
2023/11/15 00:32:33;;;;;;;4.33;1.10;;;;;;;9.50;100.00;153798.59;4942594;29;22307;-86
2023/11/15 00:34:59;;;;;;;3.20;0.97;;;;;;;9.48;100.00;153794.69;4947476;28;20568;-87
2023/11/15 00:37:26;;;;;;;3.07;0.90;;;;;;;9.49;100.00;153796.00;4949376;28;20565;-87
2023/11/15 00:39:53;;;;;;;1.20;0.60;;;;;;;9.48;100.00;153794.69;4944778;28;20972;-87
2023/11/15 00:42:20;;;;;;;1.40;0.70;;;;;;;9.45;100.00;153786.94;4953528;28;20454;-87
2023/11/15 00:44:46;;;;;;;1.67;0.60;;;;;;;9.45;100.00;153785.69;4948401;29;21000;-87
2023/11/15 00:47:13;;;;;;;1.23;0.70;;;;;;;9.46;100.00;153788.22;4927240;29;21073;-87
2023/11/15 00:49:44;;;;;;;1.30;0.70;;;;;;;9.45;100.00;153786.94;4934877;29;20471;-87
2023/11/15 00:52:12;;;;;;;3.27;0.70;;;;;;;9.43;100.00;153781.75;4939911;29;20461;-87
2023/11/15 00:54:38;;;;;;;1.73;0.80;;;;;;;9.40;100.00;153774.00;4953110;29;20470;-87
2023/11/15 00:57:05;;;;;;;2.93;0.70;;;;;;;9.38;100.00;153768.84;4954180;28;20902;-86
2023/11/15 00:59:37;;;;;;;1.70;0.90;;;;;;;9.37;100.00;153766.22;4946927;28;21003;-87
2023/11/15 01:02:05;;;;;;;1.57;0.97;;;;;;;9.35;100.00;153761.06;4942951;29;20467;-87
2023/11/15 01:04:31;;;;;;;1.40;0.83;;;;;;;9.36;100.00;153763.66;4940709;29;20502;-86
2023/11/15 01:06:59;;;;;;;1.00;0.50;;;;;;;9.37;100.00;153764.97;4953892;28;20451;-86
2023/11/15 01:09:26;;;;;;;2.03;0.70;;;;;;;9.36;100.00;153763.66;4950729;28;20487;-86
2023/11/15 01:11:55;;;;;;;3.10;0.70;;;;;;;9.36;100.00;153763.66;4951624;29;21092;-87
2023/11/15 01:14:21;;;;;;;2.37;0.70;;;;;;;9.34;100.00;153758.50;4950279;29;20494;-87
2023/11/15 01:16:48;;;;;;;1.67;0.80;;;;;;;9.30;100.00;153746.84;4946957;28;20458;-87
2023/11/15 01:19:15;;;;;;;1.70;0.90;;;;;;;9.30;100.00;153748.13;4948214;29;20477;-87
2023/11/15 01:21:41;;;;;;;1.77;0.90;;;;;;;9.30;100.00;153748.13;4951444;29;20459;-86
2023/11/15 01:24:10;;;;;;;1.83;0.90;;;;;;;9.29;100.00;153744.28;4944192;29;20454;-87
2023/11/15 01:26:36;;;;;;;1.30;0.90;;;;;;;9.29;100.00;153745.59;4945613;29;20546;-87
2023/11/15 01:29:03;;;;;;;2.27;0.87;;;;;;;9.26;100.00;153737.81;4951946;28;20458;-87
2023/11/15 01:31:29;;;;;;;4.00;1.00;;;;;;;9.22;100.00;153727.44;4944857;28;20468;-86
2023/11/15 01:33:56;;;;;;;1.77;0.90;;;;;;;9.26;100.00;153737.81;4949432;28;20475;-87
2023/11/15 01:36:23;;;;;;;1.90;0.80;;;;;;;9.23;100.00;153730.03;4948287;28;20460;-87
2023/11/15 01:38:50;;;;;;;1.67;0.87;;;;;;;9.21;100.00;153724.88;4939750;29;21245;-87
2023/11/15 01:41:18;;;;;;;2.33;0.80;;;;;;;9.19;100.00;153719.69;4948275;28;21005;-87
2023/11/15 01:43:45;;;;;;;1.47;0.70;;;;;;;9.20;100.00;153722.28;4947872;29;20824;-87
2023/11/15 01:46:14;;;;;;;1.83;0.70;;;;;;;9.19;100.00;153719.69;4951687;28;20454;-87
2023/11/15 01:48:41;;;;;;;1.40;0.80;;;;;;;9.16;100.00;153713.22;4953415;28;20797;-87
2023/11/15 01:51:08;;;;;;;2.03;0.80;;;;;;;9.13;100.00;153704.19;4953325;28;20495;-87
2023/11/15 01:53:35;;;;;;;3.50;1.10;;;;;;;9.09;100.00;153695.13;4948719;29;20451;-86
2023/11/15 01:56:03;;;;;;;4.90;0.90;;;;;;;9.05;100.00;153683.50;4949059;29;20458;-87
2023/11/15 01:58:31;;;;;;;1.30;0.77;;;;;;;9.04;100.00;153680.88;4949029;29;20467;-87
2023/11/15 02:00:59;;;;;;;2.10;1.00;;;;;;;9.02;100.00;153675.72;4932358;29;20510;-87
2023/11/15 02:03:26;;;;;;;1.50;0.80;;;;;;;8.98;100.00;153665.34;4931610;29;20444;-87
2023/11/15 02:05:53;;;;;;;2.63;0.90;;;;;;;8.96;100.00;153661.50;4950356;29;20577;-87
2023/11/15 02:08:20;;;;;;;2.27;0.87;;;;;;;8.97;100.00;153662.81;4944884;28;20529;-87
2023/11/15 02:10:47;;;;;;;2.10;1.20;;;;;;;8.97;100.00;153662.81;4945140;28;20471;-87
2023/11/15 02:13:25;;;;;;;1.43;0.60;;;;;;;8.96;100.00;153660.19;4949764;29;20538;-87
2023/11/15 02:15:56;;;;;;;1.93;1.10;;;;;;;8.98;100.00;153665.34;4942110;28;20463;-87
2023/11/15 02:18:23;;;;;;;1.60;0.67;;;;;;;8.97;100.00;153664.09;4918139;28;20468;-86
2023/11/15 02:20:49;;;;;;;2.17;0.97;;;;;;;8.96;100.00;153660.19;4947940;29;20461;-87
2023/11/15 02:23:19;;;;;;;2.57;0.80;;;;;;;8.92;100.00;153649.88;4952561;29;20466;-87
2023/11/15 02:25:46;;;;;;;2.77;0.77;;;;;;;8.87;100.00;153636.94;4945541;29;20562;-86
2023/11/15 02:28:13;;;;;;;1.50;0.90;;;;;;;8.86;100.00;153634.34;4949334;28;20449;-87
2023/11/15 02:30:39;;;;;;;2.47;0.90;;;;;;;8.83;100.00;153627.88;4946159;29;20458;-86
2023/11/15 02:33:06;;;;;;;1.60;0.90;;;;;;;8.80;100.00;153620.13;4946986;28;20452;-87
2023/11/15 02:35:32;;;;;;;3.70;1.10;;;;;;;8.78;100.00;153614.97;4930961;29;20816;-87
2023/11/15 02:37:59;;;;;;;3.47;1.10;;;;;;;8.75;100.00;153605.91;4949089;29;20489;-87
2023/11/15 02:40:25;;;;;;;1.30;0.80;;;;;;;8.72;100.00;153599.44;4931354;29;20456;-87
2023/11/15 02:42:54;;;;;;;2.73;0.70;;;;;;;8.72;100.00;153598.13;4949961;28;20859;-87
2023/11/15 02:45:21;;;;;;;2.70;0.90;;;;;;;8.67;100.00;153585.22;4931948;29;20474;-87
2023/11/15 02:47:47;;;;;;;1.20;0.73;;;;;;;8.66;100.00;153582.66;4949621;28;20458;-87
2023/11/15 02:50:14;;;;;;;1.10;0.70;;;;;;;8.65;100.00;153581.34;4950759;28;20482;-86
2023/11/15 02:52:41;;;;;;;2.27;1.00;;;;;;;8.62;100.00;153572.28;4947037;28;20900;-87
2023/11/15 02:55:08;;;;;;;1.40;0.90;;;;;;;8.61;100.00;153569.69;4951400;28;20459;-87
2023/11/15 02:57:35;;;;;;;2.60;1.10;;;;;;;8.56;100.00;153559.38;4951853;28;20490;-86
2023/11/15 03:00:04;;;;;;;1.30;0.67;;;;;;;8.58;100.00;153564.53;4949544;29;20463;-87
2023/11/15 03:02:30;;;;;;;2.47;1.07;;;;;;;8.56;100.00;153558.06;4942188;29;20431;-87
2023/11/15 03:04:57;;;;;;;1.87;1.20;;;;;;;8.52;100.00;153549.00;4948545;29;20470;-86
2023/11/15 03:07:32;;;;;;;3.67;0.90;;;;;;;8.54;100.00;153554.19;5084519;28;21017;-87
2023/11/15 03:09:58;;;;;;;2.50;1.30;;;;;;;8.57;100.00;153561.97;5077977;28;20467;-87
2023/11/15 03:12:25;;;;;;;2.20;0.97;;;;;;;8.56;100.00;153558.06;5080017;28;20540;-87
2023/11/15 03:14:52;;;;;;;2.30;0.80;;;;;;;8.54;100.00;153554.19;5081839;28;20488;-86
2023/11/15 03:17:19;;;;;;;1.93;0.90;;;;;;;8.57;100.00;153560.66;5082433;28;20582;-87
2023/11/15 03:19:46;;;;;;;1.53;1.00;;;;;;;8.58;100.00;153564.53;5081027;28;20441;-87
2023/11/15 03:22:13;;;;;;;1.30;0.80;;;;;;;8.57;100.00;153560.66;5080125;28;20482;-87
2023/11/15 03:24:42;;;;;;;1.93;0.80;;;;;;;8.60;100.00;153567.13;5097377;28;20433;-86
2023/11/15 03:27:09;;;;;;;1.40;0.70;;;;;;;8.58;100.00;153564.53;5070896;28;21003;-87
2023/11/15 03:29:35;;;;;;;4.30;1.10;;;;;;;8.60;100.00;153567.13;5076452;28;20947;-87
2023/11/15 03:32:02;;;;;;;2.60;0.93;;;;;;;8.58;100.00;153563.22;5079357;28;20546;-87
2023/11/15 03:34:29;;;;;;;2.27;0.90;;;;;;;8.62;100.00;153572.28;5083133;28;20956;-87
2023/11/15 03:36:57;;;;;;;1.77;0.77;;;;;;;8.62;100.00;153572.28;5062858;28;20454;-87
2023/11/15 03:39:26;;;;;;;2.33;0.80;;;;;;;8.62;100.00;153572.28;5080882;28;20975;-87
2023/11/15 03:41:54;;;;;;;1.17;0.50;;;;;;;8.61;100.00;153570.97;5071600;28;20442;-87
2023/11/15 03:44:20;;;;;;;1.10;0.60;;;;;;;8.63;100.00;153574.88;5080044;28;20445;-87
2023/11/15 03:46:47;;;;;;;2.20;0.77;;;;;;;8.67;100.00;153585.22;5078457;28;20991;-87
2023/11/15 03:49:13;;;;;;;1.10;0.70;;;;;;;8.65;100.00;153581.34;5082660;28;20610;-87
2023/11/15 03:51:40;;;;;;;2.63;0.80;;;;;;;8.61;100.00;153570.97;5083677;28;20467;-87
2023/11/15 03:54:07;;;;;;;1.83;1.30;;;;;;;8.58;100.00;153564.53;5085945;28;20452;-86
2023/11/15 03:56:33;;;;;;;1.20;0.80;;;;;;;8.55;100.00;153556.75;5078165;28;20777;-87
2023/11/15 03:59:01;;;;;;;5.13;1.10;;;;;;;8.53;100.00;153551.59;5086322;28;20453;-87
2023/11/15 04:01:28;;;;;;;1.87;0.80;;;;;;;8.51;100.00;153546.44;5057747;28;20951;-87
2023/11/15 04:03:55;;;;;;;2.70;1.10;;;;;;;8.47;100.00;153536.06;5078803;28;20445;-87
2023/11/15 04:06:22;;;;;;;4.57;0.80;;;;;;;8.47;100.00;153536.06;5061280;28;20568;-86
2023/11/15 04:08:49;;;;;;;1.50;0.90;;;;;;;8.44;100.00;153528.34;5075183;28;20445;-86
2023/11/15 04:11:15;;;;;;;1.43;0.77;;;;;;;8.42;100.00;153523.16;5095366;28;20453;-86
2023/11/15 04:13:43;;;;;;;1.77;0.90;;;;;;;8.43;100.00;153525.75;5067573;28;20533;-86
2023/11/15 04:16:13;;;;;;;1.53;0.93;;;;;;;8.42;100.00;153523.16;5078849;28;20832;-87
2023/11/15 04:18:39;;;;;;;2.40;0.80;;;;;;;8.42;100.00;153523.16;5074625;28;20533;-86
2023/11/15 04:21:07;;;;;;;1.60;0.80;;;;;;;8.41;100.00;153519.28;5055505;28;20519;-85
2023/11/15 04:23:47;;;;;;;1.80;0.67;;;;;;;8.36;100.00;153507.69;5079606;28;20500;-86
2023/11/15 04:26:14;;;;;;;1.40;0.80;;;;;;;8.36;100.00;153506.38;5070847;28;20484;-87
2023/11/15 04:28:41;;;;;;;1.93;0.77;;;;;;;8.37;100.00;153510.22;5060201;28;20456;-87
2023/11/15 04:31:08;;;;;;;2.50;0.80;;;;;;;8.37;100.00;153510.22;5062347;28;20458;-86
2023/11/15 04:33:36;;;;;;;1.70;1.10;;;;;;;8.48;100.00;153537.38;5073500;28;20465;-86
2023/11/15 04:36:03;;;;;;;2.43;0.87;;;;;;;8.52;100.00;153547.75;5065539;28;20457;-86
2023/11/15 04:38:30;;;;;;;2.47;1.07;;;;;;;8.52;100.00;153547.75;5061508;28;20454;-85
2023/11/15 04:40:56;;;;;;;3.47;1.77;;;;;;;8.44;100.00;153528.34;5042607;28;20450;-86
2023/11/15 04:43:23;;;;;;;4.23;2.20;;;;;;;8.42;100.00;153523.16;5058293;28;20732;-85
2023/11/15 04:45:51;;;;;;;3.30;2.03;;;;;;;8.40;100.00;153518.00;5068760;28;20438;-87
2023/11/15 04:48:17;;;;;;;2.57;1.43;;;;;;;8.37;100.00;153510.22;5069638;28;20526;-86
2023/11/15 04:50:45;;;;;;;1.40;1.20;;;;;;;8.34;100.00;153502.47;5064993;28;20453;-87
2023/11/15 04:53:12;;;;;;;2.50;1.60;;;;;;;8.35;100.00;153505.06;5068458;28;20449;-87
2023/11/15 04:55:38;;;;;;;3.10;1.40;;;;;;;8.37;100.00;153508.94;5060782;28;20453;-88
2023/11/15 04:58:05;;;;;;;1.83;0.97;;;;;;;8.35;100.00;153505.06;5078726;28;20442;-86
2023/11/15 05:00:32;;;;;;;1.43;0.97;;;;;;;8.36;100.00;153506.38;5055860;28;20451;-87
2023/11/15 05:02:58;;;;;;;2.47;1.13;;;;;;;8.34;100.00;153502.47;5055789;28;20945;-87
2023/11/15 05:05:25;;;;;;;1.40;0.90;;;;;;;8.33;100.00;153499.91;5040862;28;20489;-86
2023/11/15 05:07:53;;;;;;;3.43;1.00;;;;;;;8.33;100.00;153499.91;5077990;28;20489;-86
2023/11/15 05:10:22;;;;;;;7.23;1.47;;;;;;;8.35;100.00;153505.06;5059441;28;20458;-86
2023/11/15 05:12:49;;;;;;;1.67;0.90;;;;;;;8.36;100.00;153506.38;5069890;28;20819;-86
2023/11/15 05:15:15;;;;;;;1.67;1.10;;;;;;;8.36;100.00;153506.38;5063487;28;20503;-86
2023/11/15 05:17:42;;;;;;;1.93;0.83;;;;;;;8.34;100.00;153502.47;5054087;28;20505;-86
2023/11/15 05:20:10;;;;;;;1.80;1.00;;;;;;;8.34;100.00;153502.47;5056916;28;20862;-85
2023/11/15 05:22:37;;;;;;;2.70;1.00;;;;;;;8.35;100.00;153505.06;5055244;28;20437;-86
2023/11/15 05:25:06;;;;;;;2.40;1.00;;;;;;;8.33;100.00;153499.91;5079996;28;20973;-86
2023/11/15 05:27:33;;;;;;;0.97;0.77;;;;;;;8.33;100.00;153499.91;5061653;28;20991;-86
2023/11/15 05:29:59;;;;;;;1.63;1.00;;;;;;;8.31;100.00;153494.72;5077071;28;20771;-86
2023/11/15 05:32:26;;;;;;;2.77;1.10;;;;;;;8.29;100.00;153489.56;5066194;28;20532;-86
2023/11/15 05:34:52;;;;;;;2.07;1.00;;;;;;;8.29;100.00;153489.56;5050197;28;20443;-85
2023/11/15 05:37:19;;;;;;;2.73;1.10;;;;;;;8.31;100.00;153494.72;5040189;28;20581;-85
2023/11/15 05:39:45;;;;;;;2.30;1.53;;;;;;;8.32;100.00;153497.31;5071767;28;20442;-85
2023/11/15 05:42:14;;;;;;;3.90;1.67;;;;;;;8.31;100.00;153494.72;5055598;28;20948;-85
2023/11/15 05:44:41;;;;;;;3.50;1.03;;;;;;;8.32;100.00;153496.00;5062385;28;20468;-86
2023/11/15 05:47:07;;;;;;;2.17;1.10;;;;;;;8.34;100.00;153501.22;5059068;28;20494;-85
2023/11/15 05:49:34;;;;;;;3.37;2.00;;;;;;;8.34;100.00;153502.47;5066457;28;20501;-86
2023/11/15 05:52:00;;;;;;;1.97;1.30;;;;;;;8.35;100.00;153503.78;5083297;28;20786;-86
2023/11/15 05:54:28;;;;;;;1.90;1.40;;;;;;;8.33;100.00;153498.63;5063168;28;20825;-86
2023/11/15 05:56:56;;;;;;;1.83;1.33;;;;;;;8.33;100.00;153499.91;5054983;28;20861;-86
2023/11/15 05:59:24;;;;;;;2.97;0.93;;;;;;;8.33;100.00;153498.63;5065540;28;20449;-86
2023/11/15 06:01:51;;;;;;;1.97;1.00;;;;;;;8.33;100.00;153499.91;5066700;28;20461;-86
2023/11/15 06:04:18;;;;;;;3.00;1.10;;;;;;;8.30;100.00;153492.16;5061015;28;20524;-86
2023/11/15 06:06:44;;;;;;;2.70;1.00;;;;;;;8.31;100.00;153494.72;5068727;28;20487;-87
2023/11/15 06:09:13;;;;;;;3.63;1.17;;;;;;;8.30;100.00;153490.84;5071211;28;20484;-86
2023/11/15 06:11:41;;;;;;;2.50;1.13;;;;;;;8.30;100.00;153490.84;5056177;28;20919;-86
2023/11/15 06:14:07;;;;;;;2.57;1.40;;;;;;;8.30;100.00;153492.16;5052217;28;21057;-86
2023/11/15 06:16:38;;;;;;;1.90;1.00;;;;;;;8.33;100.00;153499.91;5072294;28;20562;-86
2023/11/15 06:19:06;;;;;;;1.50;0.70;;;;;;;8.35;100.00;153503.78;5054837;28;20450;-85
2023/11/15 06:21:33;;;;;;;2.03;0.83;;;;;;;8.33;100.00;153499.91;5057620;28;20461;-86
2023/11/15 06:24:00;;;;;;;1.33;0.80;;;;;;;8.32;100.00;153496.00;5053150;28;20451;-85
2023/11/15 06:26:28;;;;;;;1.60;0.90;;;;;;;8.33;100.00;153499.91;5056858;28;20485;-85
2023/11/15 06:28:55;;;;;;;2.00;1.17;;;;;;;8.33;100.00;153499.91;5054720;28;20449;-85
2023/11/15 06:31:22;;;;;;;2.83;0.80;;;;;;;8.33;100.00;153499.91;5054369;28;20474;-87
2023/11/15 06:33:50;;;;;;;1.80;0.80;;;;;;;8.32;100.00;153497.31;5051476;28;20442;-86
2023/11/15 06:36:17;;;;;;;1.77;0.70;;;;;;;8.30;100.00;153492.16;5054452;28;20564;-86
2023/11/15 06:38:44;;;;;;;3.00;1.07;;;;;;;8.32;100.00;153496.00;5055141;28;20443;-86
2023/11/15 06:41:10;;;;;;;2.70;0.83;;;;;;;8.32;100.00;153496.00;5069362;28;20451;-86
2023/11/15 06:43:37;;;;;;;1.20;0.80;;;;;;;8.32;100.00;153497.31;5055315;28;20455;-86
2023/11/15 06:46:04;;;;;;;2.90;1.20;;;;;;;8.31;100.00;153494.72;5055921;28;20449;-87
2023/11/15 06:48:30;;;;;;;1.30;0.70;;;;;;;8.31;100.00;153494.72;5051956;28;20880;-87
2023/11/15 06:50:58;;;;;;;1.50;1.10;;;;;;;8.32;100.00;153497.31;5069911;28;20455;-86
2023/11/15 06:53:25;;;;;;;3.60;0.90;;;;;;;8.33;100.00;153499.91;5057428;28;20932;-86
2023/11/15 06:55:54;;;;;;;1.70;1.10;;;;;;;8.32;100.00;153497.31;5055533;28;20478;-86
2023/11/15 06:58:21;;;;;;;3.63;1.20;;;;;;;8.33;100.00;153499.91;5055497;28;20456;-86
2023/11/15 07:00:49;;;;;;;2.70;1.23;;;;;;;8.36;100.00;153507.69;5055927;28;20455;-86
2023/11/15 07:03:17;;;;;;;2.60;1.00;;;;;;;8.35;100.00;153505.06;5055625;28;20446;-87
2023/11/15 07:05:48;;;;;;;3.30;1.43;;;;;;;8.34;100.00;153502.47;5054697;28;20488;-86
2023/11/15 07:08:17;;;;;;;3.57;2.30;;;;;;;8.32;100.00;153496.00;5070836;28;20474;-86
2023/11/15 07:10:43;;;;;;;2.20;1.37;;;;;;;8.29;100.00;153489.56;5054442;28;20887;-86
2023/11/15 07:13:12;;;;;;;2.97;1.30;;;;;;;8.28;100.00;153487.00;5056571;28;20457;-86
2023/11/15 07:15:50;;;;;;;3.80;1.60;;;;;;;8.31;100.00;153494.72;5053087;28;20446;-87
2023/11/15 07:18:17;;;;;;;2.70;1.50;;;;;;;8.46;100.00;153533.53;5071534;28;20455;-88
2023/11/15 07:20:44;;;;;;;2.67;1.40;;;;;;;9.13;100.00;153704.19;5055631;28;20508;-87
2023/11/15 07:23:11;;;;;;;3.67;1.87;;;;;;;10.01;100.00;153929.25;5082594;28;20546;-86
2023/11/15 07:25:41;;;;;;;3.37;1.43;;;;;;;10.80;100.00;154132.59;5066068;28;20434;-88
2023/11/15 07:28:09;;;;;;;2.23;1.40;;;;;;;11.01;100.00;154188.25;5065505;28;20917;-88
2023/11/15 07:30:36;;;;;;;3.60;1.80;;;;;;;10.99;100.00;154183.09;5054822;28;20474;-87
2023/11/15 07:33:04;;;;;;;2.20;1.60;;;;;;;10.74;100.00;154117.03;5072798;28;20529;-88
2023/11/15 07:35:36;;;;;;;2.07;0.90;;;;;;;10.38;100.00;154025.09;5074706;28;20569;-88
2023/11/15 07:38:07;;;;;;;1.70;1.00;;;;;;;10.04;100.00;153937.03;5045655;28;20449;-86
2023/11/15 07:40:36;;;;;;;2.30;1.20;;;;;;;9.73;100.00;153859.41;5074582;28;21030;-86
2023/11/15 07:43:35;;;;;;;5.70;1.70;;;;;;;9.48;100.00;153794.69;5085182;28;20457;-86
2023/11/15 07:46:02;;;;;;;3.20;1.20;;;;;;;9.34;100.00;153757.22;5036780;28;20854;-86
2023/11/15 07:48:29;;;;;;;1.90;1.20;;;;;;;9.28;100.00;153742.97;5062877;28;20481;-87
2023/11/15 07:50:57;;;;;;;3.10;1.77;;;;;;;9.26;100.00;153737.81;5074176;28;20449;-87
2023/11/15 07:53:24;;;;;;;2.40;1.40;;;;;;;9.24;100.00;153732.59;5055442;28;20489;-86
2023/11/15 07:55:52;;;;;;;1.70;1.30;;;;;;;9.23;100.00;153730.03;5060906;28;20454;-86
2023/11/15 07:58:18;;;;;;;4.63;1.50;;;;;;;9.23;100.00;153728.75;5057724;28;20449;-86
2023/11/15 08:00:46;;;;;;;1.97;1.17;;;;;;;9.23;100.00;153730.03;5075465;28;20473;-86
2023/11/15 08:03:13;;;;;;;2.30;1.13;;;;;;;9.23;100.00;153730.03;5059915;28;20464;-86
2023/11/15 08:05:40;;;;;;;2.10;1.23;;;;;;;9.22;100.00;153727.44;5073647;28;20556;-86
2023/11/15 08:08:08;;;;;;;1.87;1.07;;;;;;;9.20;100.00;153722.28;5058388;28;20481;-86
2023/11/15 08:10:37;;;;;;;2.10;1.30;;;;;;;9.17;100.00;153714.50;5073531;28;20450;-86
2023/11/15 08:13:04;;;;;;;3.13;1.70;;;;;;;9.14;100.00;153708.03;5059806;28;20515;-85
2023/11/15 08:15:31;;;;;;;5.00;1.30;;;;;;;9.13;100.00;153704.19;5071036;28;20976;-86
2023/11/15 08:17:59;;;;;;;3.90;1.43;;;;;;;9.18;100.00;153718.41;5072082;28;20870;-86
2023/11/15 08:20:26;;;;;;;3.47;1.53;;;;;;;9.28;100.00;153742.97;5056147;28;20451;-86
2023/11/15 08:22:52;;;;;;;2.27;1.50;;;;;;;9.35;100.00;153761.06;5072827;28;20450;-86
2023/11/15 08:25:25;;;;;;;5.23;1.50;;;;;;;9.40;100.00;153774.00;5058947;28;20870;-86
2023/11/15 08:27:52;;;;;;;2.93;1.57;;;;;;;9.41;100.00;153775.31;5041295;28;20585;-86
2023/11/15 08:30:18;;;;;;;2.13;1.20;;;;;;;9.42;100.00;153777.91;5072062;28;20438;-85
2023/11/15 08:32:45;;;;;;;2.07;1.23;;;;;;;9.43;100.00;153780.47;5074171;28;20453;-86
2023/11/15 08:35:15;;;;;;;2.83;1.40;;;;;;;9.42;100.00;153779.22;5074114;28;20810;-86
2023/11/15 08:37:42;;;;;;;2.33;1.30;;;;;;;9.41;100.00;153775.31;5058209;28;20939;-86
2023/11/15 08:40:11;;;;;;;3.87;1.77;;;;;;;9.40;100.00;153774.00;5071840;28;20454;-86
2023/11/15 08:42:37;;;;;;;2.53;1.80;;;;;;;9.41;100.00;153775.31;5074143;28;20454;-86
2023/11/15 08:45:06;;;;;;;5.40;2.13;;;;;;;9.45;100.00;153785.69;5074785;28;20831;-86
2023/11/15 08:47:33;;;;;;;3.50;1.40;;;;;;;9.46;100.00;153789.53;5069473;28;20493;-85
2023/11/15 08:49:59;;;;;;;3.50;1.73;;;;;;;9.47;100.00;153790.84;5074727;28;20466;-86
2023/11/15 08:52:27;;;;;;;2.83;1.20;;;;;;;9.47;100.00;153792.13;5073696;28;20843;-86
2023/11/15 08:54:56;;;;;;;3.57;1.10;;;;;;;9.48;100.00;153794.69;5072483;28;20558;-86
2023/11/15 08:57:22;;;;;;;1.77;1.20;;;;;;;9.48;100.00;153793.41;5059314;28;20511;-87
2023/11/15 08:59:50;;;;;;;4.20;2.13;;;;;;;9.44;100.00;153784.38;5059356;28;20485;-86
2023/11/15 09:02:18;;;;;;;5.43;3.37;;;;;;;9.42;100.00;153779.22;5059837;28;21234;-87
2023/11/15 09:04:45;;;;;;;5.70;5.10;;;;;;;9.39;100.00;153771.44;5039617;28;20453;-86
2023/11/15 09:07:12;;;;;;;7.70;3.30;;;;;;;9.40;100.00;153774.00;5057629;28;20554;-86
2023/11/15 09:09:41;;;;;;;3.13;2.13;;;;;;;9.45;100.00;153785.69;5059737;28;20441;-86
2023/11/15 09:12:09;;;;;;;3.80;2.00;;;;;;;9.48;100.00;153793.41;5040632;28;20538;-87
2023/11/15 09:14:39;;;;;;;3.13;1.37;;;;;;;9.52;100.00;153805.06;5070893;28;20498;-86
2023/11/15 09:17:12;;;;;;;2.30;1.30;;;;;;;9.53;100.00;153806.38;5073271;28;20446;-86
2023/11/15 09:19:39;;;;;;;3.60;1.47;;;;;;;9.55;100.00;153811.53;5055914;28;20477;-85
2023/11/15 09:22:06;;;;;;;2.10;1.80;;;;;;;9.56;100.00;153815.41;5063950;28;20524;-86
2023/11/15 09:24:35;;;;;;;3.00;2.10;;;;;;;9.58;100.00;153820.56;5072922;28;20493;-88
2023/11/15 09:27:03;;;;;;;3.63;2.20;;;;;;;9.60;100.00;153824.47;5057338;28;21128;-88
2023/11/15 09:29:30;;;;;;;2.00;1.37;;;;;;;9.62;100.00;153830.94;5036708;28;20457;-88
2023/11/15 09:31:56;;;;;;;2.20;1.50;;;;;;;9.63;100.00;153833.53;5057406;28;20574;-88
2023/11/15 09:34:24;;;;;;;4.10;2.80;;;;;;;9.64;100.00;153836.09;5054674;28;20454;-88
2023/11/15 09:36:51;;;;;;;3.17;2.03;;;;;;;9.65;100.00;153838.72;5058273;28;20458;-88
2023/11/15 09:39:17;;;;;;;5.23;2.83;;;;;;;9.68;100.00;153845.16;5060186;28;20458;-88
2023/11/15 09:41:51;;;;;;;2.37;1.47;;;;;;;9.69;100.00;153849.03;5064111;28;20849;-88
2023/11/15 09:44:20;;;;;;;2.50;1.77;;;;;;;9.74;100.00;153860.72;5051700;28;20473;-88
2023/11/15 09:46:47;;;;;;;4.13;1.17;;;;;;;9.78;100.00;153872.34;5067586;28;20486;-88
2023/11/15 09:49:15;;;;;;;2.57;1.60;;;;;;;9.85;100.00;153887.88;5073726;28;20474;-89
2023/11/15 09:51:44;;;;;;;2.23;1.60;;;;;;;9.88;100.00;153896.91;5067633;28;20454;-88
2023/11/15 09:54:12;;;;;;;3.20;1.80;;;;;;;9.87;100.00;153893.06;5055004;28;21191;-88
2023/11/15 09:56:39;;;;;;;3.83;2.33;;;;;;;9.87;100.00;153894.34;5070785;28;20450;-88
2023/11/15 09:59:06;;;;;;;2.13;1.60;;;;;;;9.88;100.00;153895.59;5044589;28;21033;-88
2023/11/15 10:01:34;;;;;;;1.77;1.10;;;;;;;9.90;100.00;153900.81;5071610;28;20463;-88
2023/11/15 10:04:03;;;;;;;4.00;1.37;;;;;;;9.91;100.00;153904.69;5070902;28;20531;-86
2023/11/15 10:06:39;;;;;;;2.40;1.27;;;;;;;9.92;100.00;153907.28;5046244;28;20995;-87
2023/11/15 10:09:06;;;;;;;2.43;1.20;;;;;;;9.93;100.00;153908.59;5055766;28;20585;-87
2023/11/15 10:11:35;;;;;;;3.67;0.93;;;;;;;9.96;100.00;153916.31;5057818;28;20450;-87
2023/11/15 10:14:15;;;;;;;3.10;1.07;;;;;;;9.97;100.00;153918.91;5057280;28;20511;-88
2023/11/15 10:16:49;;;;;;;2.43;1.00;;;;;;;9.98;100.00;153922.78;5073073;28;20963;-88
2023/11/15 10:19:24;;;;;;;1.53;0.80;;;;;;;9.98;100.00;153921.53;5054425;28;20526;-89
2023/11/15 10:21:58;;;;;;;1.10;0.80;;;;;;;10.00;100.00;153926.69;5056443;28;20787;-89
2023/11/15 10:24:28;;;;;;;1.50;0.83;;;;;;;10.03;100.00;153934.47;5056941;28;20456;-87
2023/11/15 10:26:56;;;;;;;1.87;1.00;;;;;;;10.03;100.00;153934.47;5055173;28;20458;-88
2023/11/15 10:29:26;;;;;;;1.60;0.70;;;;;;;10.06;100.00;153943.50;5056854;28;20482;-89
2023/11/15 10:31:56;;;;;;;1.77;0.77;;;;;;;10.11;100.00;153955.19;5060567;28;21085;-88
2023/11/15 10:34:29;;;;;;;4.20;0.67;;;;;;;10.16;100.00;153968.16;5057088;28;20453;-88
2023/11/15 10:37:07;;;;;;;1.43;0.60;;;;;;;10.22;100.00;153983.66;5070815;28;20442;-88
2023/11/15 10:39:40;;;;;;;3.10;0.97;;;;;;;10.25;100.00;153991.44;5074903;28;20524;-88
2023/11/15 10:42:10;;;;;;;1.47;0.83;;;;;;;10.28;100.00;154000.50;5053354;28;20516;-88
2023/11/15 10:44:38;;;;;;;2.47;0.70;;;;;;;10.30;100.00;154004.38;5058701;28;20473;-88
2023/11/15 10:47:07;;;;;;;1.37;0.77;;;;;;;10.30;100.00;154004.38;5054881;28;20456;-88
2023/11/15 10:49:38;;;;;;;3.87;1.00;;;;;;;10.29;100.00;154001.81;5055550;28;20486;-87
2023/11/15 10:52:06;;;;;;;2.73;0.90;;;;;;;10.33;100.00;154012.16;5066303;28;20469;-87
2023/11/15 10:54:33;;;;;;;1.20;0.67;;;;;;;10.32;100.00;154010.91;5071495;28;20457;-88
2023/11/15 10:57:01;;;;;;;2.40;0.70;;;;;;;10.32;100.00;154010.91;5053188;28;20473;-87
2023/11/15 10:59:29;;;;;;;5.50;0.97;;;;;;;10.35;100.00;154018.63;5053805;28;20873;-88
2023/11/15 11:01:56;;;;;;;1.03;0.50;;;;;;;10.39;100.00;154027.69;5071656;28;20478;-88
2023/11/15 11:04:25;;;;;;;1.87;1.30;;;;;;;10.46;100.00;154045.81;5054404;28;20456;-87
2023/11/15 11:06:58;;;;;;;4.60;0.90;;;;;;;10.48;100.00;154049.72;5077191;28;20934;-88
2023/11/15 11:09:30;;;;;;;1.67;0.67;;;;;;;10.47;100.00;154048.41;5083216;28;20453;-87
2023/11/15 11:12:05;;;;;;;1.57;0.80;;;;;;;10.50;100.00;154054.88;5092899;28;20442;-86
2023/11/15 11:14:33;;;;;;;1.50;0.70;;;;;;;10.52;100.00;154060.06;5068016;28;20450;-86
2023/11/15 11:16:59;;;;;;;2.73;1.10;;;;;;;10.56;100.00;154070.44;5054671;28;20438;-86
2023/11/15 11:19:27;;;;;;;2.10;0.90;;;;;;;10.57;100.00;154074.31;5073035;28;20446;-86
2023/11/15 11:22:07;;;;;;;1.87;1.23;;;;;;;10.55;100.00;154069.13;5056746;28;20450;-85
2023/11/15 11:24:35;;;;;;;1.40;0.60;;;;;;;10.55;100.00;154069.13;5057138;28;20933;-86
2023/11/15 11:27:33;;;;;;;4.27;0.87;;;;;;;10.59;100.00;154079.47;5056202;28;20544;-86